Time;durP1;ratioP1;P1;durP2;ratioP2;P2;SDS_P1;SDS_P2;PMS_P1;PMS_P2;Temp;Humidity;BMP_temperature;BMP_pressure;BME280_temperature;BME280_humidity;BME280_pressure;Samples;Min_cycle;Max_cycle;Signal;HPM_P1;HPM_P2
2022/11/04 00:02:17;;;;;;;6.18;1.92;;;14.50;78.20;;;;;;21169877;28;20073;-59
2022/11/04 00:12:25;;;;;;;2.55;1.77;;;14.30;78.50;;;;;;21169830;28;20415;-58
2022/11/04 00:43:23;;;;;;;2.97;2.03;;;14.40;78.70;;;;;;20824322;28;20092;-59
2022/11/04 00:53:25;;;;;;;2.78;1.92;;;14.40;78.50;;;;;;20823636;28;20203;-57
2022/11/04 01:03:26;;;;;;;2.05;1.50;;;14.40;78.50;;;;;;20823867;28;20077;-57
2022/11/04 01:13:28;;;;;;;3.50;2.35;;;14.20;78.60;;;;;;20991611;28;20053;-58
2022/11/04 01:23:29;;;;;;;2.83;2.20;;;14.20;78.40;;;;;;21164141;28;20150;-56
2022/11/04 01:33:31;;;;;;;3.20;2.30;;;13.90;79.10;;;;;;21164334;28;20039;-58
2022/11/04 01:43:47;;;;;;;3.50;2.28;;;13.80;79.10;;;;;;21163200;28;20062;-58
2022/11/04 01:53:54;;;;;;;2.92;2.20;;;14.00;78.50;;;;;;21167895;28;20135;-57
2022/11/04 02:14:18;;;;;;;2.70;2.30;;;13.80;78.60;;;;;;21179479;28;20098;-57
2022/11/04 02:24:29;;;;;;;3.55;2.60;;;13.70;78.50;;;;;;21179253;28;20380;-58
2022/11/04 02:34:39;;;;;;;4.22;3.08;;;13.70;78.40;;;;;;21177178;28;20055;-57
2022/11/04 02:45:06;;;;;;;2.72;2.30;;;13.60;78.30;;;;;;21175985;28;20097;-58
2022/11/04 02:55:23;;;;;;;2.45;2.20;;;13.50;78.20;;;;;;21157112;28;20427;-58
2022/11/04 03:05:38;;;;;;;3.83;2.10;;;13.30;78.00;;;;;;21175473;28;20043;-55
2022/11/04 03:15:49;;;;;;;2.10;1.33;;;13.30;77.40;;;;;;21173658;28;20043;-56
2022/11/04 03:26:11;;;;;;;3.70;2.25;;;13.40;74.90;;;;;;21173296;28;20126;-56
2022/11/04 03:36:16;;;;;;;2.60;2.13;;;13.30;75.20;;;;;;21172471;28;20066;-58
2022/11/04 03:46:21;;;;;;;3.90;2.22;;;13.30;76.00;;;;;;21171324;28;20127;-57
2022/11/04 03:56:37;;;;;;;3.37;2.13;;;13.30;76.00;;;;;;21170724;28;20043;-56
2022/11/04 04:06:43;;;;;;;2.90;2.10;;;13.20;75.10;;;;;;21170547;28;20438;-56
2022/11/04 04:16:48;;;;;;;2.15;1.50;;;13.20;74.60;;;;;;21168207;28;20075;-57
2022/11/04 04:37:15;;;;;;;4.18;1.65;;;13.20;72.40;;;;;;21167358;28;20043;-55
2022/11/04 04:47:25;;;;;;;1.88;1.00;;;13.20;67.60;;;;;;21166766;28;20055;-57
2022/11/04 04:57:27;;;;;;;2.15;1.17;;;13.20;64.70;;;;;;21165811;28;20051;-58
2022/11/04 05:07:29;;;;;;;3.83;0.95;;;13.20;63.90;;;;;;21165117;28;20407;-57
2022/11/04 05:17:31;;;;;;;2.35;1.00;;;13.20;61.80;;;;;;21165010;28;20044;-55
2022/11/04 05:27:33;;;;;;;4.25;1.10;;;13.20;61.30;;;;;;21164460;28;20134;-57
2022/11/04 05:37:34;;;;;;;2.90;0.93;;;13.20;60.60;;;;;;21163927;28;20044;-56
2022/11/04 05:47:36;;;;;;;3.67;0.98;;;13.10;61.00;;;;;;21163487;28;20138;-56
2022/11/04 05:57:38;;;;;;;4.05;1.58;;;12.90;61.70;;;;;;21163411;28;20082;-57
2022/11/04 06:07:40;;;;;;;2.45;1.40;;;12.80;62.20;;;;;;21162688;28;20108;-57
2022/11/04 06:17:42;;;;;;;3.65;1.30;;;12.80;62.30;;;;;;21162411;28;20466;-57
2022/11/04 06:27:46;;;;;;;2.63;1.02;;;12.70;61.30;;;;;;21162545;28;20142;-55
2022/11/04 06:37:47;;;;;;;2.53;1.40;;;12.70;60.40;;;;;;21162502;28;20040;-57
2022/11/04 06:47:49;;;;;;;3.83;1.75;;;12.70;60.20;;;;;;21175162;28;20058;-56
2022/11/04 06:57:50;;;;;;;3.85;1.85;;;12.60;60.00;;;;;;21175149;28;20051;-55
2022/11/04 07:07:51;;;;;;;3.85;1.83;;;12.50;59.90;;;;;;21174389;28;20051;-55
2022/11/04 07:17:53;;;;;;;5.65;1.70;;;12.60;59.00;;;;;;21174267;28;20044;-54
2022/11/04 07:27:54;;;;;;;3.00;1.73;;;12.60;58.70;;;;;;21171630;28;20449;-57
2022/11/04 07:37:56;;;;;;;4.18;1.85;;;12.70;58.90;;;;;;21171881;28;20043;-54
2022/11/04 07:47:58;;;;;;;5.55;2.42;;;12.70;58.80;;;;;;21170375;28;20055;-56
2022/11/04 07:58:01;;;;;;;4.30;2.13;;;12.70;58.40;;;;;;21169989;28;20075;-56
2022/11/04 08:08:04;;;;;;;5.15;1.88;;;12.90;57.40;;;;;;21169176;28;20108;-58
2022/11/04 08:18:05;;;;;;;28.98;4.60;;;13.00;55.80;;;;;;21168884;28;20055;-55
2022/11/04 08:28:11;;;;;;;7.43;2.15;;;13.20;54.50;;;;;;21167960;28;20479;-56
2022/11/04 08:38:13;;;;;;;2.33;1.15;;;13.30;53.40;;;;;;21166548;28;20612;-55
2022/11/04 08:48:17;;;;;;;3.97;1.50;;;13.40;51.30;;;;;;21165089;28;20055;-55
2022/11/04 08:58:19;;;;;;;;;;;13.70;50.70;;;;;;21165741;28;20075;-57
2022/11/04 09:08:21;;;;;;;3.42;1.27;;;13.80;50.00;;;;;;21163657;28;20359;-54
2022/11/04 09:18:23;;;;;;;6.07;1.45;;;14.10;48.50;;;;;;21164206;28;20388;-57
2022/11/04 09:28:25;;;;;;;4.70;1.70;;;14.20;49.00;;;;;;21163601;28;20404;-58
2022/11/04 09:38:27;;;;;;;3.55;1.80;;;14.40;48.60;;;;;;21163487;28;20062;-57
2022/11/04 09:48:38;;;;;;;4.10;1.20;;;14.60;46.50;;;;;;21162842;28;20492;-57
2022/11/04 09:58:40;;;;;;;3.35;1.45;;;14.90;44.40;;;;;;21163107;28;20052;-58
2022/11/04 10:09:14;;;;;;;2.55;1.20;;;15.00;39.90;;;;;;21162044;28;20055;-56
2022/11/04 10:19:19;;;;;;;3.00;1.02;;;15.20;40.00;;;;;;20831319;28;20470;-59
2022/11/04 10:29:32;;;;;;;7.20;1.30;;;17.00;47.10;;;;;;20835522;28;20053;-62
2022/11/04 10:39:38;;;;;;;6.40;1.60;;;17.70;41.30;;;;;;20834805;28;20041;-57
2022/11/04 10:49:44;;;;;;;4.60;1.25;;;18.00;39.10;;;;;;20933151;28;20397;-58
2022/11/04 11:00:00;;;;;;;3.67;1.58;;;18.00;38.60;;;;;;21175817;28;20079;-59
2022/11/04 11:10:02;;;;;;;3.95;1.05;;;18.20;37.80;;;;;;21174292;28;20111;-59
2022/11/04 11:20:14;;;;;;;5.18;1.45;;;18.30;37.30;;;;;;21173417;28;20043;-59
2022/11/04 11:30:52;;;;;;;3.88;1.42;;;18.30;37.20;;;;;;21172267;28;20051;-60
2022/11/04 11:41:11;;;;;;;4.30;1.50;;;18.50;37.80;;;;;;21171784;28;20048;-57
2022/11/04 11:51:21;;;;;;;2.78;1.27;;;17.70;35.10;;;;;;21170999;28;20424;-60
2022/11/04 12:02:08;;;;;;;4.45;1.33;;;18.20;39.60;;;;;;21169886;28;20518;-59
2022/11/04 12:12:12;;;;;;;4.90;1.40;;;18.70;37.50;;;;;;21143653;28;20116;-59
2022/11/04 12:22:46;;;;;;;3.50;1.38;;;18.90;38.60;;;;;;21168716;28;20400;-61
2022/11/04 12:33:05;;;;;;;4.00;1.90;;;19.00;38.20;;;;;;21167535;28;20063;-61
2022/11/04 12:43:18;;;;;;;4.30;2.20;;;19.20;37.30;;;;;;21165987;28;20074;-64
2022/11/04 12:53:34;;;;;;;7.40;2.93;;;18.90;38.20;;;;;;21165452;28;20058;-57
2022/11/04 13:04:02;;;;;;;3.28;1.90;;;18.70;37.90;;;;;;21164732;28;20048;-57
2022/11/04 13:14:28;;;;;;;5.95;1.85;;;18.00;37.40;;;;;;21165701;28;20078;-57
2022/11/04 13:24:34;;;;;;;3.50;1.35;;;17.70;38.90;;;;;;21164277;28;20415;-59
2022/11/04 13:34:42;;;;;;;2.38;1.23;;;17.60;38.70;;;;;;21162660;28;20048;-58
2022/11/04 13:44:47;;;;;;;4.65;1.30;;;17.60;38.10;;;;;;21162302;28;20051;-57
2022/11/04 13:54:51;;;;;;;3.08;1.30;;;17.40;39.70;;;;;;21178148;28;20096;-56
2022/11/04 14:04:55;;;;;;;4.07;1.40;;;17.50;39.10;;;;;;21179700;28;20051;-56
2022/11/04 14:15:12;;;;;;;4.85;1.38;;;17.60;37.40;;;;;;21178706;28;20051;-57
2022/11/04 14:25:19;;;;;;;4.40;2.28;;;17.70;36.60;;;;;;21177834;28;20047;-56
2022/11/04 14:35:24;;;;;;;5.22;2.70;;;17.70;36.10;;;;;;21177895;28;20052;-56
2022/11/04 14:45:38;;;;;;;4.82;2.20;;;17.70;37.20;;;;;;21176532;28;20051;-58
2022/11/04 14:55:40;;;;;;;5.75;1.77;;;17.80;37.30;;;;;;21176050;28;20047;-58
2022/11/04 15:05:48;;;;;;;3.83;1.80;;;17.70;34.90;;;;;;21174578;28;20052;-58
2022/11/04 15:15:52;;;;;;;5.70;2.10;;;17.60;35.10;;;;;;21173465;28;20404;-56
2022/11/04 15:25:54;;;;;;;4.30;1.83;;;17.60;35.30;;;;;;21173177;28;20054;-58
2022/11/04 15:35:57;;;;;;;6.38;2.40;;;17.60;34.90;;;;;;21173996;28;20553;-56
2022/11/04 15:46:00;;;;;;;5.22;2.35;;;17.60;36.70;;;;;;21172124;28;20056;-56
2022/11/04 15:56:01;;;;;;;3.67;2.70;;;17.60;37.00;;;;;;21171419;28;20127;-57
2022/11/04 16:06:06;;;;;;;5.75;2.45;;;17.50;37.00;;;;;;21170635;28;20047;-56
2022/11/04 16:16:20;;;;;;;4.22;2.55;;;17.40;36.70;;;;;;21168664;28;20043;-56
2022/11/04 16:26:28;;;;;;;3.87;1.80;;;17.30;35.80;;;;;;21167863;28;20047;-58
2022/11/04 16:36:30;;;;;;;4.10;1.50;;;17.30;35.40;;;;;;21167552;28;20047;-57
2022/11/04 16:46:33;;;;;;;4.70;1.67;;;17.20;35.20;;;;;;21165373;28;20050;-57
2022/11/04 16:56:35;;;;;;;4.35;2.20;;;17.10;34.90;;;;;;21166061;28;20097;-57
2022/11/04 17:06:38;;;;;;;7.35;2.22;;;16.90;35.00;;;;;;21165304;28;20051;-55
2022/11/04 17:16:39;;;;;;;7.75;1.63;;;16.70;34.70;;;;;;21164898;28;20118;-56
2022/11/04 17:26:41;;;;;;;3.45;1.30;;;16.70;33.80;;;;;;21163780;28;20138;-57
2022/11/04 17:36:43;;;;;;;3.97;1.17;;;16.40;34.80;;;;;;21164031;28;20055;-57
2022/11/04 17:46:47;;;;;;;6.68;2.92;;;16.20;36.10;;;;;;21161942;28;20507;-59
2022/11/04 17:56:50;;;;;;;2.47;1.27;;;16.00;37.60;;;;;;21162725;28;20188;-56
2022/11/04 18:06:52;;;;;;;10.10;1.58;;;15.70;38.60;;;;;;21162377;28;20057;-58
2022/11/04 18:16:54;;;;;;;4.97;1.45;;;15.70;39.00;;;;;;21162128;28;20044;-56
2022/11/04 18:27:00;;;;;;;4.53;1.60;;;15.50;39.50;;;;;;21161683;28;20048;-58
2022/11/04 18:37:02;;;;;;;3.60;1.38;;;15.40;39.70;;;;;;21167882;28;20116;-58
2022/11/04 18:47:04;;;;;;;6.43;2.10;;;15.30;40.20;;;;;;21175168;28;20043;-57
2022/11/04 18:57:09;;;;;;;6.20;1.73;;;15.20;40.80;;;;;;21176614;28;20071;-55
2022/11/04 19:07:12;;;;;;;3.33;1.55;;;15.20;40.80;;;;;;21175200;28;20139;-57
2022/11/04 19:17:14;;;;;;;5.65;1.73;;;15.00;41.40;;;;;;21173785;28;20100;-57
2022/11/04 19:27:18;;;;;;;5.25;1.95;;;14.80;42.20;;;;;;21173275;28;20058;-56
2022/11/04 19:37:19;;;;;;;7.77;1.93;;;14.80;42.80;;;;;;21172561;28;20047;-56
2022/11/04 19:47:21;;;;;;;6.05;2.38;;;14.90;42.70;;;;;;21171535;28;20056;-58
2022/11/04 19:57:23;;;;;;;5.07;1.98;;;14.70;43.60;;;;;;21172304;28;20468;-56
2022/11/04 20:07:25;;;;;;;7.05;2.40;;;14.70;43.60;;;;;;21169609;28;20047;-56
2022/11/04 20:17:26;;;;;;;6.22;2.20;;;14.60;44.00;;;;;;21169110;28;20048;-57
2022/11/04 20:27:28;;;;;;;4.03;2.15;;;14.50;44.20;;;;;;21167873;28;20047;-57
2022/11/04 20:37:30;;;;;;;8.02;2.95;;;14.60;44.60;;;;;;21168281;28;20457;-57
2022/11/04 20:47:34;;;;;;;4.80;2.65;;;14.50;45.30;;;;;;21165470;28;20063;-58
2022/11/04 20:57:36;;;;;;;7.28;3.17;;;14.20;45.30;;;;;;21165896;28;20134;-59
2022/11/04 21:07:39;;;;;;;7.85;3.42;;;14.20;45.70;;;;;;21165652;28;20075;-57
2022/11/04 21:17:40;;;;;;;8.40;4.05;;;14.00;46.30;;;;;;21146156;28;20130;-57
2022/11/04 21:27:44;;;;;;;9.23;4.90;;;13.90;46.70;;;;;;21164731;28;20058;-57
2022/11/04 21:37:46;;;;;;;6.40;3.75;;;13.70;47.60;;;;;;21164078;28;20047;-55
2022/11/04 21:47:48;;;;;;;8.93;4.28;;;13.60;47.80;;;;;;21163790;28;20138;-56
2022/11/04 21:57:50;;;;;;;10.27;4.40;;;13.40;48.70;;;;;;21163582;28;20040;-56
2022/11/04 22:18:14;;;;;;;5.97;3.28;;;13.20;49.40;;;;;;21179562;28;20130;-56
2022/11/04 22:28:18;;;;;;;8.40;3.53;;;13.00;50.30;;;;;;21180410;28;20476;-58
2022/11/04 22:38:19;;;;;;;8.88;2.95;;;12.70;51.50;;;;;;21178248;28;20056;-58
2022/11/04 22:48:22;;;;;;;4.95;2.47;;;12.60;52.50;;;;;;21176370;28;20055;-56
2022/11/04 22:58:23;;;;;;;8.25;2.80;;;12.40;53.00;;;;;;21176166;28;20047;-56
2022/11/04 23:08:26;;;;;;;5.57;2.40;;;12.20;53.10;;;;;;21176210;28;20097;-56
2022/11/04 23:18:41;;;;;;;6.00;2.42;;;12.00;53.60;;;;;;21175616;28;20043;-55
2022/11/04 23:39:02;;;;;;;5.95;2.85;;;11.50;55.20;;;;;;21172380;28;20126;-56
